Albion, Pennsylvania
Current Conditions -  °F | °C
As of 6:07 PM on Tuesday 27 Jan 2015 (Local Time) from KERI Reporting Station
Overcast Overcast  
Wind Chill: 11°   Ceiling: 2200
Heat Index: 19°   Visibility: 10mi
Dew Point: 11°   Wind: 6mph
Humidity: 71%   Direction: 340°NNW
Pressure: 30.11"   Gusts: NA
Location:  41.89°N, 80.36°W
Report Text: KERI 272307Z 34005KT 10SM BKN022 OVC090 M07/M12 A3011 RMK AO2 T10721117
Loading
Personal Weather Stations






























Interactive Weather Map New forecast layout! Learn more

10-Day Weather Forecast

Advertisements
Track Severe Weather on mobile